Time;durP1;ratioP1;P1;durP2;ratioP2;P2;SDS_P1;SDS_P2;PMS_P1;PMS_P2;Temp;Humidity;BMP_temperature;BMP_pressure;BME280_temperature;BME280_humidity;BME280_pressure;Samples;Min_cycle;Max_cycle;Signal;HPM_P1;HPM_P2
2022/04/24 00:00:17;;;;;;;;;;;;;;;14.61;90.66;97594.63;5058168;28;19920;-45
2022/04/24 00:02:43;;;;;;;;;;;;;;;14.23;92.91;97595.50;5064332;28;19920;-46
2022/04/24 00:05:08;;;;;;;;;;;;;;;14.53;91.28;97591.72;5059211;28;19920;-44
2022/04/24 00:07:33;;;;;;;;;;;;;;;14.23;94.50;97591.19;5061138;28;19955;-43
2022/04/24 00:09:59;;;;;;;;;;;;;;;13.94;96.10;97589.78;5067577;28;19924;-45
2022/04/24 00:12:24;;;;;;;;;;;;;;;13.64;95.22;97590.06;5059897;28;19967;-44
2022/04/24 00:14:49;;;;;;;;;;;;;;;13.07;98.67;97591.19;5059559;28;19920;-47
2022/04/24 00:17:16;;;;;;;;;;;;;;;13.57;97.82;97587.06;5058596;28;19963;-46
2022/04/24 00:19:41;;;;;;;;;;;;;;;13.83;98.39;97584.50;5061988;28;19956;-46
2022/04/24 00:22:06;;;;;;;;;;;;;;;13.25;99.57;97581.41;5064146;28;20043;-47
2022/04/24 00:24:32;;;;;;;;;;;;;;;13.60;100.00;97581.69;5060210;28;20008;-45
2022/04/24 00:26:58;;;;;;;;;;;;;;;13.47;97.71;97571.34;5063218;28;20012;-45
2022/04/24 00:29:23;;;;;;;;;;;;;;;14.19;96.54;97565.63;5059436;28;19928;-44
2022/04/24 00:31:48;;;;;;;;;;;;;;;13.77;97.41;97568.44;5061582;28;19920;-46
2022/04/24 00:34:13;;;;;;;;;;;;;;;13.29;97.53;97569.97;5063218;28;19916;-46
2022/04/24 00:36:39;;;;;;;;;;;;;;;14.02;95.17;97566.75;5060431;28;19917;-46
2022/04/24 00:39:04;;;;;;;;;;;;;;;14.33;95.79;97569.81;5060626;28;19931;-46
2022/04/24 00:41:29;;;;;;;;;;;;;;;13.92;95.86;97574.34;5061974;28;19927;-48
2022/04/24 00:43:55;;;;;;;;;;;;;;;13.56;95.80;97570.72;5060318;28;19971;-45
2022/04/24 00:46:39;;;;;;;;;;;;;;;13.50;96.63;97568.56;5060400;28;19987;-44
2022/04/24 00:49:05;;;;;;;;;;;;;;;14.14;95.02;97560.75;5062509;28;19924;-45
2022/04/24 00:51:30;;;;;;;;;;;;;;;13.94;94.98;97559.53;5061999;28;19923;-47
2022/04/24 00:53:55;;;;;;;;;;;;;;;13.89;96.47;97569.38;5062154;28;19936;-47
2022/04/24 00:56:22;;;;;;;;;;;;;;;13.08;97.42;97573.00;5063299;28;19967;-45
2022/04/24 00:58:47;;;;;;;;;;;;;;;13.61;96.87;97567.81;5061225;28;19916;-45
2022/04/24 01:01:12;;;;;;;;;;;;;;;13.39;97.55;97571.84;5061397;28;19920;-47
2022/04/24 01:03:38;;;;;;;;;;;;;;;13.12;98.88;97571.88;5063534;28;19960;-44
2022/04/24 01:06:03;;;;;;;;;;;;;;;13.53;98.59;97570.94;5066346;28;19955;-43
2022/04/24 01:08:28;;;;;;;;;;;;;;;13.26;96.90;97567.56;5064889;28;19956;-43
2022/04/24 01:10:53;;;;;;;;;;;;;;;13.05;100.00;97570.63;5062718;28;19958;-44
2022/04/24 01:13:19;;;;;;;;;;;;;;;13.14;100.00;97566.63;5060329;28;19967;-46
2022/04/24 01:15:44;;;;;;;;;;;;;;;12.94;100.00;97568.72;5067210;28;19969;-47
2022/04/24 01:18:09;;;;;;;;;;;;;;;13.29;100.00;97567.38;5066504;28;19963;-45
2022/04/24 01:20:34;;;;;;;;;;;;;;;13.26;100.00;97568.41;5063510;28;20627;-44
2022/04/24 01:23:00;;;;;;;;;;;;;;;13.18;99.51;97575.81;5061101;28;19927;-47
2022/04/24 01:25:25;;;;;;;;;;;;;;;13.23;100.00;97568.59;5063923;28;19924;-46
2022/04/24 01:27:50;;;;;;;;;;;;;;;12.85;100.00;97571.91;5063028;28;20668;-45
2022/04/24 01:30:15;;;;;;;;;;;;;;;13.37;100.00;97563.38;5064315;28;19929;-44
2022/04/24 01:32:41;;;;;;;;;;;;;;;13.08;100.00;97565.25;5065305;28;19928;-44
2022/04/24 01:35:11;;;;;;;;;;;;;;;13.73;98.55;97561.84;5063979;28;19928;-45
2022/04/24 01:37:36;;;;;;;;;;;;;;;13.53;100.00;97562.34;5066274;28;19931;-44
2022/04/24 01:40:02;;;;;;;;;;;;;;;12.42;100.00;97566.88;5063541;28;19916;-48
2022/04/24 01:42:27;;;;;;;;;;;;;;;13.04;100.00;97557.78;5061576;28;19917;-46
2022/04/24 01:44:52;;;;;;;;;;;;;;;12.98;100.00;97559.88;5064199;28;19920;-48
2022/04/24 01:47:17;;;;;;;;;;;;;;;12.28;100.00;97561.75;5063300;28;19916;-47
2022/04/24 01:49:43;;;;;;;;;;;;;;;12.91;99.58;97547.44;5065879;28;20027;-45
2022/04/24 01:52:08;;;;;;;;;;;;;;;12.89;100.00;97552.72;5066291;28;20061;-44
2022/04/24 01:54:33;;;;;;;;;;;;;;;13.57;97.89;97545.69;5062433;28;19971;-49
2022/04/24 01:56:59;;;;;;;;;;;;;;;13.32;100.00;97547.34;5063518;28;20184;-44
2022/04/24 01:59:25;;;;;;;;;;;;;;;12.68;100.00;97551.47;5063059;28;20152;-46
2022/04/24 02:01:50;;;;;;;;;;;;;;;12.80;100.00;97550.72;5060909;28;20045;-48
2022/04/24 02:04:16;;;;;;;;;;;;;;;12.02;100.00;97559.03;5063950;28;19927;-45
2022/04/24 02:06:41;;;;;;;;;;;;;;;11.88;100.00;97551.28;5063075;28;20646;-44
2022/04/24 02:09:07;;;;;;;;;;;;;;;13.37;100.00;97540.09;5062464;28;19920;-44
2022/04/24 02:11:32;;;;;;;;;;;;;;;12.49;100.00;97537.16;5061801;28;19956;-45
2022/04/24 02:13:57;;;;;;;;;;;;;;;13.05;100.00;97538.78;5065220;28;19958;-44
2022/04/24 02:16:22;;;;;;;;;;;;;;;13.73;97.36;97535.97;5064157;28;19917;-44
2022/04/24 02:18:47;;;;;;;;;;;;;;;12.67;99.53;97548.06;5060461;28;19920;-45
2022/04/24 02:21:13;;;;;;;;;;;;;;;12.16;100.00;97547.84;5062776;28;19920;-45
2022/04/24 02:23:39;;;;;;;;;;;;;;;12.28;100.00;97544.50;5063915;28;19931;-44
2022/04/24 02:26:04;;;;;;;;;;;;;;;12.50;100.00;97546.56;5059963;28;19927;-45
2022/04/24 02:28:29;;;;;;;;;;;;;;;12.81;100.00;97552.34;5062473;28;19916;-45
2022/04/24 02:30:54;;;;;;;;;;;;;;;13.02;98.05;97544.97;5062110;28;19920;-47
2022/04/24 02:33:19;;;;;;;;;;;;;;;12.54;100.00;97542.88;5061718;28;19928;-45
2022/04/24 02:35:45;;;;;;;;;;;;;;;12.40;100.00;97544.66;5063476;28;20604;-46
2022/04/24 02:38:10;;;;;;;;;;;;;;;12.84;100.00;97536.69;5062428;28;20361;-45
2022/04/24 02:40:35;;;;;;;;;;;;;;;12.55;100.00;97552.28;5063754;28;19920;-47
2022/04/24 02:43:01;;;;;;;;;;;;;;;12.76;100.00;97544.91;5063403;28;20637;-46
2022/04/24 02:45:26;;;;;;;;;;;;;;;12.43;100.00;97542.72;5061614;28;19920;-46
2022/04/24 02:47:51;;;;;;;;;;;;;;;11.70;100.00;97543.72;5063569;28;19960;-46
2022/04/24 02:50:16;;;;;;;;;;;;;;;11.67;100.00;97553.38;5063490;28;19927;-47
2022/04/24 02:52:45;;;;;;;;;;;;;;;12.35;100.00;97552.69;5061522;28;19964;-44
2022/04/24 02:55:11;;;;;;;;;;;;;;;12.02;100.00;97546.13;5062220;28;20344;-45
2022/04/24 02:57:37;;;;;;;;;;;;;;;11.64;100.00;97554.38;5062980;28;19924;-46
2022/04/24 03:00:03;;;;;;;;;;;;;;;12.14;100.00;97553.09;5060129;28;19920;-46
2022/04/24 03:02:28;;;;;;;;;;;;;;;11.71;100.00;97550.50;5061100;28;19927;-46
2022/04/24 03:04:53;;;;;;;;;;;;;;;11.72;100.00;97554.75;5060682;28;20039;-46
2022/04/24 03:07:18;;;;;;;;;;;;;;;11.18;100.00;97557.09;5063369;28;20385;-46
2022/04/24 03:09:44;;;;;;;;;;;;;;;11.27;100.00;97546.25;5061467;28;20505;-45
2022/04/24 03:12:09;;;;;;;;;;;;;;;10.94;100.00;97555.91;5062208;28;20408;-46
2022/04/24 03:14:34;;;;;;;;;;;;;;;11.39;100.00;97547.25;5061257;28;19972;-47
2022/04/24 03:16:59;;;;;;;;;;;;;;;11.64;100.00;97544.06;5063623;28;19931;-45
2022/04/24 03:19:25;;;;;;;;;;;;;;;11.56;100.00;97538.53;5064730;28;20026;-44
2022/04/24 03:21:50;;;;;;;;;;;;;;;11.55;100.00;97539.47;5063577;28;20527;-46
2022/04/24 03:24:15;;;;;;;;;;;;;;;11.44;100.00;97541.84;5063679;28;19939;-46
2022/04/24 03:26:41;;;;;;;;;;;;;;;11.19;100.00;97547.59;5061602;28;19974;-46
2022/04/24 03:29:06;;;;;;;;;;;;;;;11.35;100.00;97544.97;5062406;28;19932;-46
2022/04/24 03:31:31;;;;;;;;;;;;;;;11.80;100.00;97540.56;5061018;28;19930;-45
2022/04/24 03:33:58;;;;;;;;;;;;;;;11.35;100.00;97537.22;5062631;28;19920;-45
2022/04/24 03:36:23;;;;;;;;;;;;;;;11.59;100.00;97543.53;5057340;28;20240;-44
2022/04/24 03:38:48;;;;;;;;;;;;;;;11.02;100.00;97553.72;5062453;28;20352;-46
2022/04/24 03:41:13;;;;;;;;;;;;;;;11.72;100.00;97551.34;5063088;28;19916;-46
2022/04/24 03:43:39;;;;;;;;;;;;;;;11.38;100.00;97547.34;5066082;28;19920;-48
2022/04/24 03:46:05;;;;;;;;;;;;;;;11.27;100.00;97542.84;5064411;28;19916;-45
2022/04/24 03:48:31;;;;;;;;;;;;;;;11.10;100.00;97542.03;5062101;28;19943;-46
2022/04/24 03:50:56;;;;;;;;;;;;;;;10.94;100.00;97549.00;5060312;28;19920;-45
2022/04/24 03:53:21;;;;;;;;;;;;;;;11.27;100.00;97551.41;5060648;28;19930;-48
2022/04/24 03:55:46;;;;;;;;;;;;;;;10.95;100.00;97554.97;5064577;28;20019;-45
2022/04/24 03:58:12;;;;;;;;;;;;;;;10.71;100.00;97559.75;5061478;28;20011;-45
2022/04/24 04:00:37;;;;;;;;;;;;;;;10.22;100.00;97560.69;5061200;28;20015;-48
2022/04/24 04:03:02;;;;;;;;;;;;;;;10.36;100.00;97570.25;5062496;28;19924;-47
2022/04/24 04:05:27;;;;;;;;;;;;;;;10.11;100.00;97570.72;5060827;28;19998;-46
2022/04/24 04:07:53;;;;;;;;;;;;;;;10.81;100.00;97573.78;5063150;28;20027;-45
2022/04/24 04:10:18;;;;;;;;;;;;;;;11.10;100.00;97565.22;5055973;28;20043;-46
2022/04/24 04:12:43;;;;;;;;;;;;;;;11.05;100.00;97569.00;5058956;28;19931;-45
2022/04/24 04:15:09;;;;;;;;;;;;;;;10.83;100.00;97570.22;5062197;28;20028;-48
2022/04/24 04:17:34;;;;;;;;;;;;;;;10.50;100.00;97572.09;5061504;28;19956;-44
2022/04/24 04:19:59;;;;;;;;;;;;;;;10.20;100.00;97572.78;5063425;28;20816;-45
2022/04/24 04:22:25;;;;;;;;;;;;;;;10.25;100.00;97581.09;5060709;28;20531;-46
2022/04/24 04:24:50;;;;;;;;;;;;;;;11.01;100.00;97570.09;5059207;28;20466;-45
2022/04/24 04:27:15;;;;;;;;;;;;;;;10.51;100.00;97571.16;5061055;28;19964;-45
2022/04/24 04:29:40;;;;;;;;;;;;;;;10.61;100.00;97577.47;5063048;28;20003;-45
2022/04/24 04:32:06;;;;;;;;;;;;;;;10.86;100.00;97576.94;5061683;28;19928;-45
2022/04/24 04:34:31;;;;;;;;;;;;;;;11.26;100.00;97575.50;5067266;28;19943;-45
2022/04/24 04:36:56;;;;;;;;;;;;;;;10.48;100.00;97584.19;5066258;28;19943;-45
2022/04/24 04:39:21;;;;;;;;;;;;;;;10.55;100.00;97577.81;5066182;28;19966;-46
2022/04/24 04:41:47;;;;;;;;;;;;;;;10.32;100.00;97581.63;5062048;28;19920;-47
2022/04/24 04:44:12;;;;;;;;;;;;;;;10.24;100.00;97579.41;5064064;28;19920;-47
2022/04/24 04:46:38;;;;;;;;;;;;;;;10.49;100.00;97578.97;5065270;28;19927;-47
2022/04/24 04:49:03;;;;;;;;;;;;;;;11.15;100.00;97575.28;5064987;28;21977;-47
2022/04/24 04:51:29;;;;;;;;;;;;;;;11.00;100.00;97583.91;5063769;28;19924;-48
2022/04/24 04:53:55;;;;;;;;;;;;;;;11.34;100.00;97581.97;5069053;28;20338;-45
2022/04/24 04:56:21;;;;;;;;;;;;;;;11.46;100.00;97583.81;5063012;28;19916;-45
2022/04/24 04:58:46;;;;;;;;;;;;;;;11.44;100.00;97588.25;5065636;28;19916;-48
2022/04/24 05:01:11;;;;;;;;;;;;;;;10.50;100.00;97592.69;5064264;28;19920;-46
2022/04/24 05:03:37;;;;;;;;;;;;;;;11.14;100.00;97588.25;5065070;28;19925;-47
2022/04/24 05:06:02;;;;;;;;;;;;;;;10.17;100.00;97598.66;5067037;28;19973;-47
2022/04/24 05:08:27;;;;;;;;;;;;;;;10.48;100.00;97602.22;5064980;28;20439;-47
2022/04/24 05:10:53;;;;;;;;;;;;;;;10.92;100.00;97604.09;5064615;28;19921;-47
2022/04/24 05:13:18;;;;;;;;;;;;;;;10.80;100.00;97603.84;5063125;28;20039;-46
2022/04/24 05:15:43;;;;;;;;;;;;;;;11.34;100.00;97602.59;5062519;28;19916;-45
2022/04/24 05:18:08;;;;;;;;;;;;;;;10.54;100.00;97607.88;5066274;28;19920;-47
2022/04/24 05:20:34;;;;;;;;;;;;;;;10.87;100.00;97606.91;5065518;28;20395;-47
2022/04/24 05:23:06;;;;;;;;;;;;;;;11.54;100.00;97598.84;5063833;28;19920;-45
2022/04/24 05:25:32;;;;;;;;;;;;;;;11.74;100.00;97601.06;5064352;28;20306;-44
2022/04/24 05:27:57;;;;;;;;;;;;;;;11.05;100.00;97607.66;5064873;28;19973;-45
2022/04/24 05:30:23;;;;;;;;;;;;;;;11.48;100.00;97594.88;5065051;28;19924;-44
2022/04/24 05:32:50;;;;;;;;;;;;;;;11.44;100.00;97603.72;5065031;28;19920;-46
2022/04/24 05:35:15;;;;;;;;;;;;;;;10.64;100.00;97609.00;5066380;28;19927;-47
2022/04/24 05:37:40;;;;;;;;;;;;;;;10.65;100.00;97609.84;5065230;28;19920;-47
2022/04/24 05:40:06;;;;;;;;;;;;;;;10.99;100.00;97613.97;5066741;28;20397;-47
2022/04/24 05:42:31;;;;;;;;;;;;;;;11.67;100.00;97600.59;5065545;28;19912;-46
2022/04/24 05:45:01;;;;;;;;;;;;;;;11.34;100.00;97610.31;5062810;28;20012;-48
2022/04/24 05:47:26;;;;;;;;;;;;;;;11.54;100.00;97615.16;5066082;28;19927;-46
2022/04/24 05:49:51;;;;;;;;;;;;;;;11.20;100.00;97617.09;5067949;28;19916;-45
2022/04/24 05:52:17;;;;;;;;;;;;;;;10.89;100.00;97616.22;5064853;28;19965;-45
2022/04/24 05:54:42;;;;;;;;;;;;;;;11.51;100.00;97616.13;5067539;28;19924;-46
2022/04/24 05:57:07;;;;;;;;;;;;;;;11.52;100.00;97624.72;5063812;28;19920;-46
2022/04/24 05:59:32;;;;;;;;;;;;;;;10.91;100.00;97620.47;5067090;28;19921;-46
2022/04/24 06:01:57;;;;;;;;;;;;;;;10.34;100.00;97621.81;5065553;28;19928;-46
2022/04/24 06:04:23;;;;;;;;;;;;;;;10.84;100.00;97625.94;5065654;28;19932;-45
2022/04/24 06:06:48;;;;;;;;;;;;;;;12.35;100.00;97614.66;5068606;28;19920;-45
2022/04/24 06:09:13;;;;;;;;;;;;;;;12.00;100.00;97612.47;5070076;28;19924;-47
2022/04/24 06:11:41;;;;;;;;;;;;;;;11.24;100.00;97621.16;5066470;28;19930;-46
2022/04/24 06:14:06;;;;;;;;;;;;;;;11.44;100.00;97616.59;5066296;28;19916;-47
2022/04/24 06:16:31;;;;;;;;;;;;;;;10.75;100.00;97625.63;5066995;28;19920;-46
2022/04/24 06:18:56;;;;;;;;;;;;;;;11.88;100.00;97613.19;5063647;28;19920;-46
2022/04/24 06:21:22;;;;;;;;;;;;;;;11.65;100.00;97612.75;5068264;28;19920;-45
2022/04/24 06:23:47;;;;;;;;;;;;;;;11.78;100.00;97619.78;5065797;28;19920;-45
2022/04/24 06:26:12;;;;;;;;;;;;;;;11.15;100.00;97624.22;5065384;28;19927;-47
2022/04/24 06:28:37;;;;;;;;;;;;;;;12.14;100.00;97614.22;5067063;28;20000;-46
2022/04/24 06:31:02;;;;;;;;;;;;;;;11.27;100.00;97618.41;5064926;28;19967;-45
2022/04/24 06:33:28;;;;;;;;;;;;;;;12.30;100.00;97611.53;5065091;28;19920;-45
2022/04/24 06:35:53;;;;;;;;;;;;;;;11.50;100.00;97623.97;5063203;28;19920;-46
2022/04/24 06:38:19;;;;;;;;;;;;;;;11.79;100.00;97618.84;5067108;28;19920;-45
2022/04/24 06:40:45;;;;;;;;;;;;;;;12.04;100.00;97613.94;5063236;28;19966;-47
2022/04/24 06:43:10;;;;;;;;;;;;;;;11.47;100.00;97618.97;5062719;28;20688;-46
2022/04/24 06:45:35;;;;;;;;;;;;;;;12.11;100.00;97625.56;5067066;28;19916;-46
2022/04/24 06:48:02;;;;;;;;;;;;;;;12.44;100.00;97606.34;5065616;28;19917;-45
2022/04/24 06:50:27;;;;;;;;;;;;;;;11.60;100.00;97619.13;5063350;28;19920;-46
2022/04/24 06:53:01;;;;;;;;;;;;;;;12.50;100.00;97618.88;5063836;28;19931;-45
2022/04/24 06:55:27;;;;;;;;;;;;;;;12.73;100.00;97612.28;5066699;28;19990;-45
2022/04/24 06:57:52;;;;;;;;;;;;;;;13.47;100.00;97617.06;5061097;28;19935;-48
2022/04/24 07:00:18;;;;;;;;;;;;;;;12.36;100.00;97618.88;5065038;28;19950;-46
2022/04/24 07:02:43;;;;;;;;;;;;;;;12.39;100.00;97620.47;5062907;28;20000;-45
2022/04/24 07:05:09;;;;;;;;;;;;;;;13.82;100.00;97609.53;5066273;28;20134;-45
2022/04/24 07:07:34;;;;;;;;;;;;;;;12.70;100.00;97612.47;5062033;28;19973;-47
2022/04/24 07:09:59;;;;;;;;;;;;;;;13.09;100.00;97621.19;5066029;28;19920;-45
2022/04/24 07:12:25;;;;;;;;;;;;;;;12.86;100.00;97617.47;5062430;28;19931;-46
2022/04/24 07:14:50;;;;;;;;;;;;;;;14.14;100.00;97607.34;5065983;28;19981;-49
2022/04/24 07:17:15;;;;;;;;;;;;;;;13.05;100.00;97611.16;5060797;28;19920;-46
2022/04/24 07:19:40;;;;;;;;;;;;;;;12.81;100.00;97604.03;5065027;28;19920;-47
2022/04/24 07:22:06;;;;;;;;;;;;;;;13.87;100.00;97604.88;5060179;28;19924;-46
2022/04/24 07:24:31;;;;;;;;;;;;;;;14.36;100.00;97605.84;5064806;28;20914;-46
2022/04/24 07:26:56;;;;;;;;;;;;;;;14.30;100.00;97611.47;5064656;28;19920;-45
2022/04/24 07:29:21;;;;;;;;;;;;;;;14.65;100.00;97611.63;5058816;28;19920;-49
2022/04/24 07:31:46;;;;;;;;;;;;;;;14.79;100.00;97608.88;5059070;28;19920;-47
2022/04/24 07:34:12;;;;;;;;;;;;;;;14.69;100.00;97612.22;5065822;28;19928;-45
2022/04/24 07:36:37;;;;;;;;;;;;;;;14.78;100.00;97619.34;5067862;28;19965;-46
2022/04/24 07:39:02;;;;;;;;;;;;;;;14.31;100.00;97618.31;5063267;28;19920;-47
2022/04/24 07:41:27;;;;;;;;;;;;;;;13.94;100.00;97605.31;5063176;28;20932;-46
2022/04/24 07:43:53;;;;;;;;;;;;;;;15.46;100.00;97610.06;5062284;28;19922;-47
2022/04/24 07:46:18;;;;;;;;;;;;;;;15.30;100.00;97601.78;5063003;28;19920;-48
2022/04/24 07:48:43;;;;;;;;;;;;;;;15.34;100.00;97618.78;5060178;28;19998;-47
2022/04/24 07:51:08;;;;;;;;;;;;;;;15.74;100.00;97611.47;5065761;28;19920;-48
2022/04/24 07:53:34;;;;;;;;;;;;;;;15.54;100.00;97614.72;5060904;28;19924;-45
2022/04/24 07:55:59;;;;;;;;;;;;;;;14.42;100.00;97615.81;5062105;28;19921;-49
2022/04/24 07:58:24;;;;;;;;;;;;;;;16.50;100.00;97603.94;5062651;28;20441;-48
2022/04/24 08:00:49;;;;;;;;;;;;;;;16.18;97.27;97603.84;5059987;28;19920;-45
2022/04/24 08:03:15;;;;;;;;;;;;;;;15.47;100.00;97611.75;5061351;28;19926;-47
2022/04/24 08:05:40;;;;;;;;;;;;;;;15.33;100.00;97617.13;5060824;28;20035;-46
2022/04/24 08:08:15;;;;;;;;;;;;;;;14.71;100.00;97621.56;5061622;28;19959;-48
2022/04/24 08:10:42;;;;;;;;;;;;;;;14.85;100.00;97618.81;5058086;28;20366;-46
2022/04/24 08:13:07;;;;;;;;;;;;;;;14.80;99.89;97625.22;5062966;28;20409;-46
2022/04/24 08:15:33;;;;;;;;;;;;;;;15.77;100.00;97621.63;5063428;28;19977;-46
2022/04/24 08:17:58;;;;;;;;;;;;;;;15.47;100.00;97641.09;5063259;28;19971;-46
2022/04/24 08:20:23;;;;;;;;;;;;;;;16.34;99.18;97619.06;5060951;28;19920;-45
2022/04/24 08:22:49;;;;;;;;;;;;;;;16.80;95.89;97620.69;5061768;28;20448;-45
2022/04/24 08:25:18;;;;;;;;;;;;;;;16.40;96.72;97618.56;5062537;28;19920;-48
2022/04/24 08:27:43;;;;;;;;;;;;;;;16.75;94.34;97617.59;5043630;28;19920;-47
2022/04/24 08:30:10;;;;;;;;;;;;;;;16.62;93.03;97613.34;5058710;28;19924;-45
2022/04/24 08:32:35;;;;;;;;;;;;;;;15.94;92.26;97607.34;5062809;28;20038;-46
2022/04/24 08:35:01;;;;;;;;;;;;;;;16.76;93.21;97614.84;5060793;28;19928;-46
2022/04/24 08:37:26;;;;;;;;;;;;;;;16.90;87.94;97616.38;5060408;28;19929;-50
2022/04/24 08:39:52;;;;;;;;;;;;;;;17.04;91.26;97607.50;5061847;28;20609;-46
2022/04/24 08:42:19;;;;;;;;;;;;;;;17.55;90.18;97620.59;5061182;28;19952;-46
2022/04/24 08:44:45;;;;;;;;;;;;;;;17.42;91.59;97616.53;5064810;28;19917;-46
2022/04/24 08:47:11;;;;;;;;;;;;;;;17.18;90.49;97614.19;5061597;28;19920;-44
2022/04/24 08:49:36;;;;;;;;;;;;;;;17.30;87.19;97613.16;5061378;28;19968;-45
2022/04/24 08:52:02;;;;;;;;;;;;;;;17.38;89.94;97613.38;5058650;28;19970;-37
2022/04/24 08:54:27;;;;;;;;;;;;;;;18.08;85.71;97603.25;5067054;28;19962;-37
2022/04/24 08:56:56;;;;;;;;;;;;;;;17.09;88.77;97606.16;5060721;28;19920;-37
2022/04/24 08:59:21;;;;;;;;;;;;;;;17.31;85.63;97604.41;5062088;28;19962;-37
2022/04/24 09:01:47;;;;;;;;;;;;;;;18.85;83.64;97615.72;5061576;28;19916;-37
2022/04/24 09:04:12;;;;;;;;;;;;;;;17.42;82.23;97612.16;5059603;28;19920;-37
2022/04/24 09:06:37;;;;;;;;;;;;;;;17.98;85.19;97603.22;5062872;28;19922;-36
2022/04/24 09:09:06;;;;;;;;;;;;;;;17.42;83.42;97599.13;5065461;28;19917;-48
2022/04/24 09:11:31;;;;;;;;;;;;;;;17.08;85.91;97604.53;5063198;28;19924;-37
2022/04/24 09:14:14;;;;;;;;;;;;;;;18.18;86.08;97604.13;5062588;28;19924;-36
2022/04/24 09:16:46;;;;;;;;;;;;;;;18.53;82.77;97597.66;5064077;28;19977;-36
2022/04/24 09:19:20;;;;;;;;;;;;;;;16.90;82.67;97605.97;5063064;28;20007;-37
2022/04/24 09:21:45;;;;;;;;;;;;;;;16.78;86.21;97593.94;5070964;28;20464;-37
2022/04/24 09:24:10;;;;;;;;;;;;;;;17.00;85.53;97596.50;5068377;28;19924;-37
2022/04/24 09:26:35;;;;;;;;;;;;;;;17.60;83.33;97588.97;5063505;28;20164;-36
2022/04/24 09:29:01;;;;;;;;;;;;;;;18.29;84.66;97590.16;5064758;28;19916;-36
2022/04/24 09:31:29;;;;;;;;;;;;;;;18.35;80.54;97587.03;5066102;28;19928;-36
2022/04/24 09:33:55;;;;;;;;;;;;;;;17.84;78.91;97586.16;5063416;28;19916;-38
2022/04/24 09:36:23;;;;;;;;;;;;;;;18.92;78.90;97587.31;5064420;28;19928;-36
2022/04/24 09:38:48;;;;;;;;;;;;;;;17.70;79.79;97589.06;5071065;28;20414;-36
2022/04/24 09:41:15;;;;;;;;;;;;;;;17.29;81.22;97590.72;5062543;28;21149;-36
2022/04/24 09:43:41;;;;;;;;;;;;;;;18.54;78.88;97581.03;5064884;28;19916;-37
2022/04/24 09:46:07;;;;;;;;;;;;;;;19.32;72.85;97583.75;5066112;28;19924;-36
2022/04/24 09:48:33;;;;;;;;;;;;;;;19.61;73.81;97587.13;5070542;28;19916;-37
2022/04/24 09:50:58;;;;;;;;;;;;;;;18.02;76.76;97583.75;5067193;28;20615;-36
2022/04/24 09:53:23;;;;;;;;;;;;;;;18.91;73.53;97580.47;5064593;28;19924;-36
2022/04/24 09:55:52;;;;;;;;;;;;;;;17.40;79.96;97587.22;5069317;28;19946;-36
2022/04/24 09:58:17;;;;;;;;;;;;;;;18.87;73.29;97577.28;5068199;28;19920;-36
2022/04/24 10:00:44;;;;;;;;;;;;;;;19.30;71.87;97570.81;5068008;28;19923;-36
2022/04/24 10:03:09;;;;;;;;;;;;;;;18.53;69.08;97571.56;5064586;28;19927;-36
2022/04/24 10:05:37;;;;;;;;;;;;;;;18.58;72.53;97575.41;5068720;28;19951;-36
2022/04/24 10:08:03;;;;;;;;;;;;;;;18.60;70.23;97583.13;5064610;28;20110;-36
2022/04/24 10:10:28;;;;;;;;;;;;;;;17.61;72.42;97584.59;5060008;28;20400;-36
2022/04/24 10:12:54;;;;;;;;;;;;;;;18.39;71.29;97585.81;5066476;28;19930;-36
2022/04/24 10:15:20;;;;;;;;;;;;;;;19.60;64.81;97577.63;5064706;28;19923;-36
2022/04/24 10:17:55;;;;;;;;;;;;;;;19.38;66.87;97576.16;5045280;28;19955;-36
2022/04/24 10:20:32;;;;;;;;;;;;;;;19.30;69.42;97578.66;5063878;28;19916;-36
2022/04/24 10:22:58;;;;;;;;;;;;;;;20.26;70.33;97568.09;5061961;28;19916;-36
2022/04/24 10:25:30;;;;;;;;;;;;;;;19.32;63.79;97575.91;5065733;28;20897;-36
2022/04/24 10:27:56;;;;;;;;;;;;;;;18.84;66.40;97579.31;5062284;28;19920;-36
2022/04/24 10:30:22;;;;;;;;;;;;;;;19.20;67.01;97586.50;5065841;28;20334;-36
2022/04/24 10:32:48;;;;;;;;;;;;;;;19.83;64.94;97583.38;5063362;28;19924;-36
2022/04/24 10:35:15;;;;;;;;;;;;;;;18.79;63.39;97583.19;5064923;28;19924;-36
2022/04/24 10:37:40;;;;;;;;;;;;;;;19.83;61.57;97574.72;5064841;28;19927;-36
2022/04/24 10:40:10;;;;;;;;;;;;;;;20.55;58.82;97567.09;5067920;28;19916;-36
2022/04/24 10:42:36;;;;;;;;;;;;;;;19.90;57.83;97572.38;5061828;28;19920;-36
2022/04/24 10:45:09;;;;;;;;;;;;;;;20.93;60.16;97575.69;5066540;28;19993;-36
2022/04/24 10:47:49;;;;;;;;;;;;;;;20.36;57.17;97560.19;5066320;28;20332;-36
2022/04/24 10:50:17;;;;;;;;;;;;;;;21.39;55.51;97551.03;5065197;28;19927;-36
2022/04/24 10:52:43;;;;;;;;;;;;;;;20.15;54.71;97560.44;5065605;28;19973;-36
2022/04/24 10:55:09;;;;;;;;;;;;;;;21.18;53.09;97538.28;5065623;28;20015;-36
2022/04/24 10:57:40;;;;;;;;;;;;;;;21.48;50.18;97549.31;5065878;28;20470;-36
2022/04/24 11:00:12;;;;;;;;;;;;;;;20.08;52.61;97560.19;5062630;28;19985;-37
2022/04/24 11:02:37;;;;;;;;;;;;;;;21.00;51.52;97555.78;5064390;28;19962;-36
2022/04/24 11:05:04;;;;;;;;;;;;;;;20.47;51.63;97554.75;5064174;28;20023;-37
2022/04/24 11:07:31;;;;;;;;;;;;;;;20.55;50.26;97561.84;5065112;28;19981;-36
2022/04/24 11:10:17;;;;;;;;;;;;;;;20.09;49.09;97563.63;5062527;28;19920;-36
2022/04/24 11:12:43;;;;;;;;;;;;;;;20.91;49.88;97561.94;5063832;28;19920;-36
2022/04/24 11:15:09;;;;;;;;;;;;;;;19.75;49.78;97565.00;5060651;28;19924;-36
2022/04/24 11:17:35;;;;;;;;;;;;;;;21.08;52.06;97553.25;5064606;28;19920;-36
2022/04/24 11:20:03;;;;;;;;;;;;;;;20.91;49.47;97546.22;5060858;28;20304;-36
2022/04/24 11:22:29;;;;;;;;;;;;;;;20.72;49.78;97552.44;5061561;28;20966;-37
2022/04/24 11:24:55;;;;;;;;;;;;;;;20.76;51.95;97567.69;5060632;28;19916;-36
2022/04/24 11:27:25;;;;;;;;;;;;;;;20.73;50.44;97548.84;5057987;28;19925;-37
2022/04/24 11:29:50;;;;;;;;;;;;;;;21.29;50.92;97543.28;5057060;28;20825;-36
2022/04/24 11:32:17;;;;;;;;;;;;;;;22.21;50.65;97546.28;5057667;28;19932;-37
2022/04/24 11:34:42;;;;;;;;;;;;;;;20.99;47.39;97548.94;5061829;28;20017;-36
2022/04/24 11:37:09;;;;;;;;;;;;;;;19.71;51.47;97558.41;5060491;28;20182;-36
2022/04/24 11:39:34;;;;;;;;;;;;;;;19.57;52.55;97557.03;5037206;28;20014;-37
2022/04/24 11:41:59;;;;;;;;;;;;;;;20.47;49.38;97545.13;5060049;28;20992;-36
2022/04/24 11:50:13;;;;;;;;;;;;;;;19.87;50.94;97560.41;5060472;28;20019;-36
2022/04/24 11:52:39;;;;;;;;;;;;;;;21.62;48.47;97556.63;5057673;28;19977;-36
2022/04/24 11:55:05;;;;;;;;;;;;;;;21.34;46.97;97560.31;5058707;28;19924;-36
2022/04/24 11:57:31;;;;;;;;;;;;;;;21.69;46.04;97555.03;5061451;28;19924;-36
2022/04/24 11:59:56;;;;;;;;;;;;;;;21.56;48.47;97566.91;5055796;28;20542;-37
2022/04/24 12:02:25;;;;;;;;;;;;;;;22.42;47.70;97564.25;5061975;28;20019;-36
2022/04/24 12:04:50;;;;;;;;;;;;;;;23.11;53.07;97572.75;5059294;28;19920;-36
2022/04/24 12:07:16;;;;;;;;;;;;;;;21.49;53.76;97569.31;5054856;28;20558;-37
2022/04/24 12:09:41;;;;;;;;;;;;;;;20.17;54.43;97575.00;5056913;28;19942;-37
2022/04/24 12:12:12;;;;;;;;;;;;;;;20.87;58.60;97577.13;5058402;28;20035;-36
2022/04/24 12:14:37;;;;;;;;;;;;;;;21.09;59.00;97574.03;5056921;28;19924;-36
2022/04/24 12:17:03;;;;;;;;;;;;;;;21.20;60.77;97583.44;5061465;28;19920;-36
2022/04/24 12:19:29;;;;;;;;;;;;;;;19.49;70.48;97590.03;5059527;28;19960;-36
2022/04/24 12:21:54;;;;;;;;;;;;;;;21.64;68.52;97580.84;5062104;28;20006;-37
2022/04/24 12:24:20;;;;;;;;;;;;;;;21.85;61.65;97574.44;5059468;28;19978;-36
2022/04/24 12:26:49;;;;;;;;;;;;;;;21.61;61.87;97586.41;5062829;28;20290;-37
2022/04/24 12:29:17;;;;;;;;;;;;;;;23.59;53.64;97575.53;5059031;28;20388;-37
2022/04/24 12:31:43;;;;;;;;;;;;;;;21.33;58.09;97587.50;5054883;28;19924;-36
2022/04/24 12:34:08;;;;;;;;;;;;;;;20.62;60.91;97589.13;5057379;28;19921;-36
2022/04/24 12:36:33;;;;;;;;;;;;;;;20.32;64.02;97595.44;5058245;28;20078;-36
2022/04/24 12:38:59;;;;;;;;;;;;;;;20.70;61.91;97591.81;5061541;28;19927;-36